sensor_id;sensor_type;location;lat;lon;timestamp;P1;durP1;ratioP1;P2;durP2;ratioP2
74793;SDS011;63320;50.768;6.724;2023-12-14T00:02:19;16.47;;;8.87;;
74793;SDS011;63320;50.768;6.724;2023-12-14T00:04:44;20.63;;;9.20;;
74793;SDS011;63320;50.768;6.724;2023-12-14T00:07:09;14.20;;;7.83;;
74793;SDS011;63320;50.768;6.724;2023-12-14T00:09:36;21.27;;;8.50;;
74793;SDS011;63320;50.768;6.724;2023-12-14T00:12:01;18.80;;;8.70;;
74793;SDS011;63320;50.768;6.724;2023-12-14T00:14:26;18.87;;;8.57;;
74793;SDS011;63320;50.768;6.724;2023-12-14T00:16:51;20.20;;;9.40;;
74793;SDS011;63320;50.768;6.724;2023-12-14T00:19:17;20.87;;;9.93;;
74793;SDS011;63320;50.768;6.724;2023-12-14T00:21:42;25.80;;;10.80;;
74793;SDS011;63320;50.768;6.724;2023-12-14T00:24:07;28.47;;;11.53;;
74793;SDS011;63320;50.768;6.724;2023-12-14T00:26:33;25.57;;;11.80;;
74793;SDS011;63320;50.768;6.724;2023-12-14T00:28:59;24.90;;;11.80;;
74793;SDS011;63320;50.768;6.724;2023-12-14T00:31:24;25.70;;;12.20;;
74793;SDS011;63320;50.768;6.724;2023-12-14T00:33:49;31.93;;;12.63;;
74793;SDS011;63320;50.768;6.724;2023-12-14T00:36:17;32.90;;;13.93;;
74793;SDS011;63320;50.768;6.724;2023-12-14T00:38:43;32.95;;;14.10;;
74793;SDS011;63320;50.768;6.724;2023-12-14T00:41:08;37.23;;;13.43;;
74793;SDS011;63320;50.768;6.724;2023-12-14T00:43:34;34.53;;;13.33;;
74793;SDS011;63320;50.768;6.724;2023-12-14T00:45:59;34.42;;;14.27;;
74793;SDS011;63320;50.768;6.724;2023-12-14T00:48:25;34.53;;;14.07;;
74793;SDS011;63320;50.768;6.724;2023-12-14T00:50:50;40.03;;;15.57;;
74793;SDS011;63320;50.768;6.724;2023-12-14T00:53:15;37.00;;;15.57;;
74793;SDS011;63320;50.768;6.724;2023-12-14T00:55:40;36.53;;;15.70;;
74793;SDS011;63320;50.768;6.724;2023-12-14T00:58:05;37.10;;;16.77;;
74793;SDS011;63320;50.768;6.724;2023-12-14T01:00:32;41.73;;;16.33;;
74793;SDS011;63320;50.768;6.724;2023-12-14T01:02:57;44.08;;;17.33;;
74793;SDS011;63320;50.768;6.724;2023-12-14T01:05:22;45.67;;;18.20;;
74793;SDS011;63320;50.768;6.724;2023-12-14T01:07:47;47.47;;;20.73;;
74793;SDS011;63320;50.768;6.724;2023-12-14T01:10:13;53.37;;;22.53;;
74793;SDS011;63320;50.768;6.724;2023-12-14T01:12:38;51.53;;;21.90;;
74793;SDS011;63320;50.768;6.724;2023-12-14T01:15:03;58.50;;;21.87;;
74793;SDS011;63320;50.768;6.724;2023-12-14T01:17:30;64.63;;;23.15;;
74793;SDS011;63320;50.768;6.724;2023-12-14T01:19:55;58.08;;;23.38;;
74793;SDS011;63320;50.768;6.724;2023-12-14T01:22:20;56.80;;;22.07;;
74793;SDS011;63320;50.768;6.724;2023-12-14T01:24:46;50.80;;;21.47;;
74793;SDS011;63320;50.768;6.724;2023-12-14T01:27:11;59.23;;;22.07;;
74793;SDS011;63320;50.768;6.724;2023-12-14T01:29:36;58.60;;;22.47;;
74793;SDS011;63320;50.768;6.724;2023-12-14T01:32:01;59.77;;;22.60;;
74793;SDS011;63320;50.768;6.724;2023-12-14T01:34:28;52.90;;;21.47;;
74793;SDS011;63320;50.768;6.724;2023-12-14T01:36:53;58.83;;;22.92;;
74793;SDS011;63320;50.768;6.724;2023-12-14T01:39:18;58.03;;;22.70;;
74793;SDS011;63320;50.768;6.724;2023-12-14T01:41:43;59.23;;;21.90;;
74793;SDS011;63320;50.768;6.724;2023-12-14T01:44:08;56.90;;;21.17;;
74793;SDS011;63320;50.768;6.724;2023-12-14T01:46:33;58.33;;;22.40;;
74793;SDS011;63320;50.768;6.724;2023-12-14T01:48:59;54.27;;;21.30;;
74793;SDS011;63320;50.768;6.724;2023-12-14T01:51:25;52.07;;;20.67;;
74793;SDS011;63320;50.768;6.724;2023-12-14T01:53:50;52.38;;;20.75;;
74793;SDS011;63320;50.768;6.724;2023-12-14T01:56:15;55.37;;;20.43;;
74793;SDS011;63320;50.768;6.724;2023-12-14T01:58:41;59.33;;;21.77;;
74793;SDS011;63320;50.768;6.724;2023-12-14T02:01:08;53.10;;;20.73;;
74793;SDS011;63320;50.768;6.724;2023-12-14T02:03:35;55.83;;;21.58;;
74793;SDS011;63320;50.768;6.724;2023-12-14T02:06:00;54.87;;;20.70;;
74793;SDS011;63320;50.768;6.724;2023-12-14T02:08:27;57.47;;;21.17;;
74793;SDS011;63320;50.768;6.724;2023-12-14T02:10:52;61.88;;;22.35;;
74793;SDS011;63320;50.768;6.724;2023-12-14T02:13:17;52.67;;;21.27;;
74793;SDS011;63320;50.768;6.724;2023-12-14T02:15:42;52.07;;;20.60;;
74793;SDS011;63320;50.768;6.724;2023-12-14T02:18:07;52.60;;;20.73;;
74793;SDS011;63320;50.768;6.724;2023-12-14T02:20:33;55.38;;;21.50;;
74793;SDS011;63320;50.768;6.724;2023-12-14T02:22:59;49.80;;;20.33;;
74793;SDS011;63320;50.768;6.724;2023-12-14T02:25:24;48.97;;;20.23;;
74793;SDS011;63320;50.768;6.724;2023-12-14T02:27:50;50.47;;;19.80;;
74793;SDS011;63320;50.768;6.724;2023-12-14T02:30:16;48.22;;;20.75;;
74793;SDS011;63320;50.768;6.724;2023-12-14T02:32:41;48.47;;;20.63;;
74793;SDS011;63320;50.768;6.724;2023-12-14T02:35:06;56.40;;;20.63;;
74793;SDS011;63320;50.768;6.724;2023-12-14T02:37:32;45.45;;;19.42;;
74793;SDS011;63320;50.768;6.724;2023-12-14T02:39:59;47.33;;;20.52;;
74793;SDS011;63320;50.768;6.724;2023-12-14T02:42:24;53.20;;;21.67;;
74793;SDS011;63320;50.768;6.724;2023-12-14T02:44:49;52.85;;;21.77;;
74793;SDS011;63320;50.768;6.724;2023-12-14T02:47:15;62.97;;;23.10;;
74793;SDS011;63320;50.768;6.724;2023-12-14T02:49:40;66.70;;;26.37;;
74793;SDS011;63320;50.768;6.724;2023-12-14T02:52:05;69.95;;;25.23;;
74793;SDS011;63320;50.768;6.724;2023-12-14T02:54:31;68.93;;;25.23;;
74793;SDS011;63320;50.768;6.724;2023-12-14T02:56:57;68.93;;;25.73;;
74793;SDS011;63320;50.768;6.724;2023-12-14T02:59:22;62.10;;;24.23;;
74793;SDS011;63320;50.768;6.724;2023-12-14T03:01:47;63.43;;;24.80;;
74793;SDS011;63320;50.768;6.724;2023-12-14T03:04:13;58.13;;;23.33;;
74793;SDS011;63320;50.768;6.724;2023-12-14T03:06:38;56.57;;;22.17;;
74793;SDS011;63320;50.768;6.724;2023-12-14T03:09:03;51.53;;;21.37;;
74793;SDS011;63320;50.768;6.724;2023-12-14T03:11:28;48.10;;;18.83;;
74793;SDS011;63320;50.768;6.724;2023-12-14T03:13:55;46.50;;;18.33;;
74793;SDS011;63320;50.768;6.724;2023-12-14T03:16:20;47.63;;;17.17;;
74793;SDS011;63320;50.768;6.724;2023-12-14T03:18:45;37.72;;;15.55;;
74793;SDS011;63320;50.768;6.724;2023-12-14T03:21:10;37.77;;;16.33;;
74793;SDS011;63320;50.768;6.724;2023-12-14T03:23:36;32.33;;;14.47;;
74793;SDS011;63320;50.768;6.724;2023-12-14T03:26:01;32.67;;;14.13;;
74793;SDS011;63320;50.768;6.724;2023-12-14T03:28:26;30.37;;;13.23;;
74793;SDS011;63320;50.768;6.724;2023-12-14T03:30:53;29.80;;;12.37;;
74793;SDS011;63320;50.768;6.724;2023-12-14T03:33:18;28.23;;;12.65;;
74793;SDS011;63320;50.768;6.724;2023-12-14T03:35:43;31.30;;;12.63;;
74793;SDS011;63320;50.768;6.724;2023-12-14T03:38:08;31.63;;;12.53;;
74793;SDS011;63320;50.768;6.724;2023-12-14T03:40:33;27.67;;;12.13;;
74793;SDS011;63320;50.768;6.724;2023-12-14T03:42:59;28.47;;;11.93;;
74793;SDS011;63320;50.768;6.724;2023-12-14T03:45:24;24.37;;;10.27;;
74793;SDS011;63320;50.768;6.724;2023-12-14T03:47:50;21.83;;;10.17;;
74793;SDS011;63320;50.768;6.724;2023-12-14T03:50:15;19.77;;;8.45;;
74793;SDS011;63320;50.768;6.724;2023-12-14T03:52:41;20.20;;;8.43;;
74793;SDS011;63320;50.768;6.724;2023-12-14T03:55:06;20.20;;;8.23;;
74793;SDS011;63320;50.768;6.724;2023-12-14T03:57:31;23.92;;;9.27;;
74793;SDS011;63320;50.768;6.724;2023-12-14T03:59:57;25.17;;;10.33;;
74793;SDS011;63320;50.768;6.724;2023-12-14T04:02:22;23.60;;;10.07;;
74793;SDS011;63320;50.768;6.724;2023-12-14T04:04:48;24.43;;;9.83;;
74793;SDS011;63320;50.768;6.724;2023-12-14T04:07:14;21.40;;;9.10;;
74793;SDS011;63320;50.768;6.724;2023-12-14T04:09:39;23.40;;;9.33;;
74793;SDS011;63320;50.768;6.724;2023-12-14T04:12:04;16.27;;;7.50;;
74793;SDS011;63320;50.768;6.724;2023-12-14T04:14:30;17.52;;;7.10;;
74793;SDS011;63320;50.768;6.724;2023-12-14T04:16:55;15.00;;;6.90;;
74793;SDS011;63320;50.768;6.724;2023-12-14T04:19:20;18.43;;;7.17;;
74793;SDS011;63320;50.768;6.724;2023-12-14T04:21:46;15.03;;;6.10;;
74793;SDS011;63320;50.768;6.724;2023-12-14T04:24:12;18.67;;;6.82;;
74793;SDS011;63320;50.768;6.724;2023-12-14T04:26:37;29.00;;;10.23;;
74793;SDS011;63320;50.768;6.724;2023-12-14T04:29:02;39.77;;;14.13;;
74793;SDS011;63320;50.768;6.724;2023-12-14T04:31:27;42.23;;;14.97;;
74793;SDS011;63320;50.768;6.724;2023-12-14T04:33:52;35.93;;;15.17;;
74793;SDS011;63320;50.768;6.724;2023-12-14T04:36:17;32.53;;;13.67;;
74793;SDS011;63320;50.768;6.724;2023-12-14T04:38:44;27.00;;;12.80;;
74793;SDS011;63320;50.768;6.724;2023-12-14T04:41:09;26.00;;;11.88;;
74793;SDS011;63320;50.768;6.724;2023-12-14T04:43:34;22.53;;;10.20;;
74793;SDS011;63320;50.768;6.724;2023-12-14T04:46:00;28.97;;;12.77;;
74793;SDS011;63320;50.768;6.724;2023-12-14T04:48:25;35.53;;;14.20;;
74793;SDS011;63320;50.768;6.724;2023-12-14T04:50:50;45.17;;;14.83;;
74793;SDS011;63320;50.768;6.724;2023-12-14T04:53:15;41.23;;;15.53;;
74793;SDS011;63320;50.768;6.724;2023-12-14T04:55:42;36.43;;;15.63;;
74793;SDS011;63320;50.768;6.724;2023-12-14T04:58:07;38.72;;;15.80;;
74793;SDS011;63320;50.768;6.724;2023-12-14T05:00:32;39.03;;;15.13;;
74793;SDS011;63320;50.768;6.724;2023-12-14T05:02:57;34.17;;;14.37;;
74793;SDS011;63320;50.768;6.724;2023-12-14T05:05:22;36.50;;;16.17;;
74793;SDS011;63320;50.768;6.724;2023-12-14T05:07:47;39.90;;;15.83;;
74793;SDS011;63320;50.768;6.724;2023-12-14T05:10:13;37.33;;;14.67;;
74793;SDS011;63320;50.768;6.724;2023-12-14T05:12:39;36.47;;;14.87;;
74793;SDS011;63320;50.768;6.724;2023-12-14T05:15:05;43.58;;;16.35;;
74793;SDS011;63320;50.768;6.724;2023-12-14T05:17:30;36.80;;;15.45;;
74793;SDS011;63320;50.768;6.724;2023-12-14T05:19:55;39.00;;;15.57;;
74793;SDS011;63320;50.768;6.724;2023-12-14T05:22:20;34.83;;;13.97;;
74793;SDS011;63320;50.768;6.724;2023-12-14T05:24:46;36.23;;;15.20;;
74793;SDS011;63320;50.768;6.724;2023-12-14T05:27:11;34.95;;;14.40;;
74793;SDS011;63320;50.768;6.724;2023-12-14T05:29:38;33.47;;;14.10;;
74793;SDS011;63320;50.768;6.724;2023-12-14T05:32:03;34.45;;;14.77;;
74793;SDS011;63320;50.768;6.724;2023-12-14T05:34:28;36.58;;;15.50;;
74793;SDS011;63320;50.768;6.724;2023-12-14T05:36:54;36.43;;;15.07;;
74793;SDS011;63320;50.768;6.724;2023-12-14T05:39:19;38.80;;;16.03;;
74793;SDS011;63320;50.768;6.724;2023-12-14T05:41:44;41.43;;;15.67;;
74793;SDS011;63320;50.768;6.724;2023-12-14T05:44:09;36.50;;;15.87;;
74793;SDS011;63320;50.768;6.724;2023-12-14T05:46:36;37.63;;;15.73;;
74793;SDS011;63320;50.768;6.724;2023-12-14T05:49:01;36.25;;;15.90;;
74793;SDS011;63320;50.768;6.724;2023-12-14T05:51:27;36.00;;;15.80;;
74793;SDS011;63320;50.768;6.724;2023-12-14T05:53:52;38.25;;;15.68;;
74793;SDS011;63320;50.768;6.724;2023-12-14T05:56:18;37.07;;;15.30;;
74793;SDS011;63320;50.768;6.724;2023-12-14T05:58:43;39.13;;;15.60;;
74793;SDS011;63320;50.768;6.724;2023-12-14T06:01:08;39.93;;;16.23;;
74793;SDS011;63320;50.768;6.724;2023-12-14T06:03:34;45.10;;;17.40;;
74793;SDS011;63320;50.768;6.724;2023-12-14T06:06:00;42.80;;;16.83;;
74793;SDS011;63320;50.768;6.724;2023-12-14T06:08:25;42.57;;;16.57;;
74793;SDS011;63320;50.768;6.724;2023-12-14T06:10:50;42.23;;;17.63;;
74793;SDS011;63320;50.768;6.724;2023-12-14T06:13:15;41.67;;;17.87;;
74793;SDS011;63320;50.768;6.724;2023-12-14T06:15:40;40.87;;;17.67;;
74793;SDS011;63320;50.768;6.724;2023-12-14T06:18:05;42.57;;;18.70;;
74793;SDS011;63320;50.768;6.724;2023-12-14T06:20:32;44.17;;;19.00;;
74793;SDS011;63320;50.768;6.724;2023-12-14T06:22:57;49.10;;;18.80;;
74793;SDS011;63320;50.768;6.724;2023-12-14T06:25:22;45.00;;;17.53;;
74793;SDS011;63320;50.768;6.724;2023-12-14T06:27:48;52.37;;;18.80;;
74793;SDS011;63320;50.768;6.724;2023-12-14T06:30:13;65.83;;;20.07;;
74793;SDS011;63320;50.768;6.724;2023-12-14T06:32:38;49.15;;;18.88;;
74793;SDS011;63320;50.768;6.724;2023-12-14T06:35:04;48.87;;;18.50;;
74793;SDS011;63320;50.768;6.724;2023-12-14T06:37:30;47.17;;;18.83;;
74793;SDS011;63320;50.768;6.724;2023-12-14T06:39:55;41.85;;;16.20;;
74793;SDS011;63320;50.768;6.724;2023-12-14T06:42:21;40.63;;;15.60;;
74793;SDS011;63320;50.768;6.724;2023-12-14T06:44:46;40.13;;;16.77;;
74793;SDS011;63320;50.768;6.724;2023-12-14T06:47:11;44.77;;;17.60;;
74793;SDS011;63320;50.768;6.724;2023-12-14T06:49:36;38.27;;;14.83;;
74793;SDS011;63320;50.768;6.724;2023-12-14T06:52:01;39.50;;;14.60;;
74793;SDS011;63320;50.768;6.724;2023-12-14T06:54:28;40.17;;;15.37;;
74793;SDS011;63320;50.768;6.724;2023-12-14T06:56:53;37.92;;;14.70;;
74793;SDS011;63320;50.768;6.724;2023-12-14T06:59:18;40.67;;;14.87;;
74793;SDS011;63320;50.768;6.724;2023-12-14T07:01:43;39.47;;;14.83;;
74793;SDS011;63320;50.768;6.724;2023-12-14T07:04:09;33.93;;;13.23;;
74793;SDS011;63320;50.768;6.724;2023-12-14T07:06:34;34.60;;;13.53;;
74793;SDS011;63320;50.768;6.724;2023-12-14T07:08:59;32.23;;;12.70;;
74793;SDS011;63320;50.768;6.724;2023-12-14T07:11:25;35.17;;;13.77;;
74793;SDS011;63320;50.768;6.724;2023-12-14T07:13:51;32.50;;;12.65;;
74793;SDS011;63320;50.768;6.724;2023-12-14T07:16:16;33.53;;;13.03;;
74793;SDS011;63320;50.768;6.724;2023-12-14T07:18:41;30.60;;;12.53;;
74793;SDS011;63320;50.768;6.724;2023-12-14T07:21:07;33.67;;;13.73;;
74793;SDS011;63320;50.768;6.724;2023-12-14T07:23:32;29.77;;;11.55;;
74793;SDS011;63320;50.768;6.724;2023-12-14T07:25:57;27.35;;;10.93;;
74793;SDS011;63320;50.768;6.724;2023-12-14T07:28:24;31.80;;;11.50;;
74793;SDS011;63320;50.768;6.724;2023-12-14T07:30:49;30.10;;;11.48;;
74793;SDS011;63320;50.768;6.724;2023-12-14T07:33:15;29.90;;;11.97;;
74793;SDS011;63320;50.768;6.724;2023-12-14T07:35:40;27.55;;;11.05;;
74793;SDS011;63320;50.768;6.724;2023-12-14T07:38:05;26.20;;;11.32;;
74793;SDS011;63320;50.768;6.724;2023-12-14T07:40:30;26.07;;;10.93;;
74793;SDS011;63320;50.768;6.724;2023-12-14T07:42:55;26.83;;;10.97;;
74793;SDS011;63320;50.768;6.724;2023-12-14T07:45:22;25.23;;;10.53;;
74793;SDS011;63320;50.768;6.724;2023-12-14T07:47:47;31.48;;;12.10;;
74793;SDS011;63320;50.768;6.724;2023-12-14T07:50:12;26.67;;;11.63;;
74793;SDS011;63320;50.768;6.724;2023-12-14T07:52:38;27.50;;;11.43;;
74793;SDS011;63320;50.768;6.724;2023-12-14T07:55:03;26.97;;;12.20;;
74793;SDS011;63320;50.768;6.724;2023-12-14T07:57:28;29.20;;;11.80;;
74793;SDS011;63320;50.768;6.724;2023-12-14T07:59:53;26.53;;;10.67;;
74793;SDS011;63320;50.768;6.724;2023-12-14T08:02:20;25.87;;;10.50;;
74793;SDS011;63320;50.768;6.724;2023-12-14T08:04:45;28.15;;;10.90;;
74793;SDS011;63320;50.768;6.724;2023-12-14T08:07:10;27.17;;;10.63;;
74793;SDS011;63320;50.768;6.724;2023-12-14T08:09:36;25.17;;;11.07;;
74793;SDS011;63320;50.768;6.724;2023-12-14T08:12:01;24.27;;;9.53;;
74793;SDS011;63320;50.768;6.724;2023-12-14T08:14:26;27.53;;;11.00;;
74793;SDS011;63320;50.768;6.724;2023-12-14T08:16:51;25.67;;;11.47;;
74793;SDS011;63320;50.768;6.724;2023-12-14T08:19:18;28.67;;;12.00;;
74793;SDS011;63320;50.768;6.724;2023-12-14T08:21:43;30.45;;;11.95;;
74793;SDS011;63320;50.768;6.724;2023-12-14T08:24:08;27.90;;;11.70;;
74793;SDS011;63320;50.768;6.724;2023-12-14T08:26:33;27.20;;;11.97;;
74793;SDS011;63320;50.768;6.724;2023-12-14T08:28:58;25.83;;;11.37;;
74793;SDS011;63320;50.768;6.724;2023-12-14T08:31:24;26.77;;;11.33;;
74793;SDS011;63320;50.768;6.724;2023-12-14T08:33:49;30.25;;;12.15;;
74793;SDS011;63320;50.768;6.724;2023-12-14T08:36:16;34.57;;;14.10;;
74793;SDS011;63320;50.768;6.724;2023-12-14T08:38:41;31.98;;;13.25;;
74793;SDS011;63320;50.768;6.724;2023-12-14T08:41:06;28.40;;;12.83;;
74793;SDS011;63320;50.768;6.724;2023-12-14T08:43:31;34.10;;;12.77;;
74793;SDS011;63320;50.768;6.724;2023-12-14T08:45:56;26.43;;;11.60;;
74793;SDS011;63320;50.768;6.724;2023-12-14T08:48:22;25.30;;;11.60;;
74793;SDS011;63320;50.768;6.724;2023-12-14T08:50:47;28.67;;;12.57;;
74793;SDS011;63320;50.768;6.724;2023-12-14T08:53:13;34.00;;;13.00;;
74793;SDS011;63320;50.768;6.724;2023-12-14T08:55:38;29.35;;;13.02;;
74793;SDS011;63320;50.768;6.724;2023-12-14T08:58:04;34.13;;;13.50;;
74793;SDS011;63320;50.768;6.724;2023-12-14T09:00:29;35.60;;;13.73;;
74793;SDS011;63320;50.768;6.724;2023-12-14T09:02:54;29.23;;;13.30;;
74793;SDS011;63320;50.768;6.724;2023-12-14T09:05:19;31.03;;;13.07;;
74793;SDS011;63320;50.768;6.724;2023-12-14T09:07:44;30.60;;;12.47;;
74793;SDS011;63320;50.768;6.724;2023-12-14T09:10:11;26.23;;;11.53;;
74793;SDS011;63320;50.768;6.724;2023-12-14T09:12:36;25.65;;;11.13;;
74793;SDS011;63320;50.768;6.724;2023-12-14T09:15:01;25.80;;;11.97;;
74793;SDS011;63320;50.768;6.724;2023-12-14T09:17:26;29.33;;;12.90;;
74793;SDS011;63320;50.768;6.724;2023-12-14T09:19:52;30.30;;;14.93;;
74793;SDS011;63320;50.768;6.724;2023-12-14T09:22:17;34.17;;;14.27;;
74793;SDS011;63320;50.768;6.724;2023-12-14T09:24:42;31.60;;;14.47;;
74793;SDS011;63320;50.768;6.724;2023-12-14T09:27:09;29.17;;;12.80;;
74793;SDS011;63320;50.768;6.724;2023-12-14T09:29:34;31.30;;;13.65;;
74793;SDS011;63320;50.768;6.724;2023-12-14T09:31:59;31.57;;;15.00;;
74793;SDS011;63320;50.768;6.724;2023-12-14T09:34:24;29.77;;;13.57;;
74793;SDS011;63320;50.768;6.724;2023-12-14T09:36:49;33.83;;;15.37;;
74793;SDS011;63320;50.768;6.724;2023-12-14T09:39:14;30.60;;;13.90;;
74793;SDS011;63320;50.768;6.724;2023-12-14T09:41:40;31.87;;;14.07;;
74793;SDS011;63320;50.768;6.724;2023-12-14T09:44:06;31.00;;;13.43;;
74793;SDS011;63320;50.768;6.724;2023-12-14T09:46:31;33.35;;;14.55;;
74793;SDS011;63320;50.768;6.724;2023-12-14T09:48:57;29.50;;;13.70;;
74793;SDS011;63320;50.768;6.724;2023-12-14T09:55:56;32.17;;;14.50;;
74793;SDS011;63320;50.768;6.724;2023-12-14T09:58:21;34.15;;;16.10;;
74793;SDS011;63320;50.768;6.724;2023-12-14T10:00:47;33.80;;;15.73;;
74793;SDS011;63320;50.768;6.724;2023-12-14T10:03:21;36.10;;;15.37;;
74793;SDS011;63320;50.768;6.724;2023-12-14T10:05:47;30.90;;;14.35;;
74793;SDS011;63320;50.768;6.724;2023-12-14T10:08:12;32.97;;;14.35;;
74793;SDS011;63320;50.768;6.724;2023-12-14T10:10:37;35.10;;;14.60;;
74793;SDS011;63320;50.768;6.724;2023-12-14T10:13:04;29.70;;;14.37;;
74793;SDS011;63320;50.768;6.724;2023-12-14T10:15:29;30.83;;;14.30;;
74793;SDS011;63320;50.768;6.724;2023-12-14T10:20:29;28.55;;;13.95;;
74793;SDS011;63320;50.768;6.724;2023-12-14T10:22:54;35.07;;;15.80;;
74793;SDS011;63320;50.768;6.724;2023-12-14T10:25:19;29.53;;;14.13;;
74793;SDS011;63320;50.768;6.724;2023-12-14T10:27:46;28.53;;;12.10;;
74793;SDS011;63320;50.768;6.724;2023-12-14T10:30:13;22.48;;;11.65;;
74793;SDS011;63320;50.768;6.724;2023-12-14T10:32:38;25.42;;;12.30;;
74793;SDS011;63320;50.768;6.724;2023-12-14T10:35:04;25.40;;;12.10;;
74793;SDS011;63320;50.768;6.724;2023-12-14T10:37:29;24.90;;;12.32;;
74793;SDS011;63320;50.768;6.724;2023-12-14T10:39:57;27.48;;;13.07;;
74793;SDS011;63320;50.768;6.724;2023-12-14T10:42:22;26.92;;;13.38;;
74793;SDS011;63320;50.768;6.724;2023-12-14T10:44:51;26.02;;;12.48;;
74793;SDS011;63320;50.768;6.724;2023-12-14T10:47:18;27.58;;;13.05;;
74793;SDS011;63320;50.768;6.724;2023-12-14T10:49:45;25.88;;;12.45;;
74793;SDS011;63320;50.768;6.724;2023-12-14T10:52:11;26.45;;;12.75;;
74793;SDS011;63320;50.768;6.724;2023-12-14T10:54:36;21.95;;;11.38;;
74793;SDS011;63320;50.768;6.724;2023-12-14T10:57:02;21.50;;;10.40;;
74793;SDS011;63320;50.768;6.724;2023-12-14T10:59:27;21.80;;;10.87;;
74793;SDS011;63320;50.768;6.724;2023-12-14T11:01:52;21.53;;;10.83;;
74793;SDS011;63320;50.768;6.724;2023-12-14T11:09:30;21.05;;;10.15;;
74793;SDS011;63320;50.768;6.724;2023-12-14T11:11:56;22.88;;;11.27;;
74793;SDS011;63320;50.768;6.724;2023-12-14T11:14:22;22.95;;;11.27;;
74793;SDS011;63320;50.768;6.724;2023-12-14T11:16:47;21.30;;;10.02;;
74793;SDS011;63320;50.768;6.724;2023-12-14T11:19:25;22.60;;;11.25;;
74793;SDS011;63320;50.768;6.724;2023-12-14T11:21:56;23.77;;;11.02;;
74793;SDS011;63320;50.768;6.724;2023-12-14T11:24:35;25.30;;;12.05;;
74793;SDS011;63320;50.768;6.724;2023-12-14T11:27:03;24.40;;;11.25;;
74793;SDS011;63320;50.768;6.724;2023-12-14T11:29:28;22.30;;;11.20;;
74793;SDS011;63320;50.768;6.724;2023-12-14T11:31:54;24.35;;;12.32;;
74793;SDS011;63320;50.768;6.724;2023-12-14T11:34:19;23.08;;;11.73;;
74793;SDS011;63320;50.768;6.724;2023-12-14T11:36:44;22.50;;;12.23;;
74793;SDS011;63320;50.768;6.724;2023-12-14T11:39:10;21.50;;;11.47;;
74793;SDS011;63320;50.768;6.724;2023-12-14T11:41:36;22.50;;;10.87;;
74793;SDS011;63320;50.768;6.724;2023-12-14T11:44:01;23.65;;;11.93;;
74793;SDS011;63320;50.768;6.724;2023-12-14T11:46:28;27.07;;;13.17;;
74793;SDS011;63320;50.768;6.724;2023-12-14T11:48:53;24.58;;;13.50;;
74793;SDS011;63320;50.768;6.724;2023-12-14T11:51:21;24.08;;;12.63;;
74793;SDS011;63320;50.768;6.724;2023-12-14T11:53:46;23.47;;;12.43;;
74793;SDS011;63320;50.768;6.724;2023-12-14T11:56:11;23.85;;;12.38;;
74793;SDS011;63320;50.768;6.724;2023-12-14T11:58:39;24.40;;;12.83;;
74793;SDS011;63320;50.768;6.724;2023-12-14T12:01:12;20.75;;;11.05;;
74793;SDS011;63320;50.768;6.724;2023-12-14T12:03:37;24.42;;;12.32;;
74793;SDS011;63320;50.768;6.724;2023-12-14T12:06:02;22.80;;;12.30;;
74793;SDS011;63320;50.768;6.724;2023-12-14T12:08:28;29.67;;;13.90;;
74793;SDS011;63320;50.768;6.724;2023-12-14T12:10:53;28.00;;;13.90;;
74793;SDS011;63320;50.768;6.724;2023-12-14T12:13:18;27.30;;;13.17;;
74793;SDS011;63320;50.768;6.724;2023-12-14T12:15:45;27.13;;;13.55;;
74793;SDS011;63320;50.768;6.724;2023-12-14T12:18:11;26.10;;;14.27;;
74793;SDS011;63320;50.768;6.724;2023-12-14T12:20:37;25.45;;;12.75;;
74793;SDS011;63320;50.768;6.724;2023-12-14T12:23:02;24.80;;;12.70;;
74793;SDS011;63320;50.768;6.724;2023-12-14T12:25:27;25.17;;;12.90;;
74793;SDS011;63320;50.768;6.724;2023-12-14T12:27:52;25.97;;;13.30;;
74793;SDS011;63320;50.768;6.724;2023-12-14T12:30:18;26.00;;;13.07;;
74793;SDS011;63320;50.768;6.724;2023-12-14T12:32:44;25.93;;;13.17;;
74793;SDS011;63320;50.768;6.724;2023-12-14T12:35:09;25.58;;;13.07;;
74793;SDS011;63320;50.768;6.724;2023-12-14T12:37:34;24.77;;;13.20;;
74793;SDS011;63320;50.768;6.724;2023-12-14T12:40:00;26.20;;;13.10;;
74793;SDS011;63320;50.768;6.724;2023-12-14T12:42:25;25.63;;;12.70;;
74793;SDS011;63320;50.768;6.724;2023-12-14T12:44:50;23.90;;;12.63;;
74793;SDS011;63320;50.768;6.724;2023-12-14T12:47:15;25.20;;;12.73;;
74793;SDS011;63320;50.768;6.724;2023-12-14T12:49:42;26.80;;;14.20;;
74793;SDS011;63320;50.768;6.724;2023-12-14T12:52:07;21.83;;;11.50;;
74793;SDS011;63320;50.768;6.724;2023-12-14T12:54:32;23.37;;;12.17;;
74793;SDS011;63320;50.768;6.724;2023-12-14T12:56:57;28.07;;;14.00;;
74793;SDS011;63320;50.768;6.724;2023-12-14T12:59:22;25.87;;;12.43;;
74793;SDS011;63320;50.768;6.724;2023-12-14T13:01:48;23.17;;;12.33;;
74793;SDS011;63320;50.768;6.724;2023-12-14T13:04:19;24.00;;;12.57;;
74793;SDS011;63320;50.768;6.724;2023-12-14T13:06:46;26.85;;;14.00;;
74793;SDS011;63320;50.768;6.724;2023-12-14T13:09:11;24.20;;;13.13;;
74793;SDS011;63320;50.768;6.724;2023-12-14T13:11:37;25.10;;;12.83;;
74793;SDS011;63320;50.768;6.724;2023-12-14T13:14:02;25.67;;;12.57;;
74793;SDS011;63320;50.768;6.724;2023-12-14T13:16:27;25.60;;;12.97;;
74793;SDS011;63320;50.768;6.724;2023-12-14T13:18:52;25.33;;;12.77;;
74793;SDS011;63320;50.768;6.724;2023-12-14T13:21:17;26.43;;;12.47;;
74793;SDS011;63320;50.768;6.724;2023-12-14T13:23:44;25.93;;;12.23;;
74793;SDS011;63320;50.768;6.724;2023-12-14T13:26:09;26.42;;;12.95;;
74793;SDS011;63320;50.768;6.724;2023-12-14T13:28:34;24.07;;;12.17;;
74793;SDS011;63320;50.768;6.724;2023-12-14T13:30:59;23.67;;;12.70;;
74793;SDS011;63320;50.768;6.724;2023-12-14T13:33:24;23.73;;;12.20;;
74793;SDS011;63320;50.768;6.724;2023-12-14T13:35:50;21.93;;;11.33;;
74793;SDS011;63320;50.768;6.724;2023-12-14T13:38:15;21.03;;;11.17;;
74793;SDS011;63320;50.768;6.724;2023-12-14T13:40:41;22.13;;;12.00;;
74793;SDS011;63320;50.768;6.724;2023-12-14T13:43:06;22.25;;;11.45;;
74793;SDS011;63320;50.768;6.724;2023-12-14T13:45:32;29.10;;;12.90;;
74793;SDS011;63320;50.768;6.724;2023-12-14T13:47:57;37.00;;;17.87;;
74793;SDS011;63320;50.768;6.724;2023-12-14T13:50:22;20.80;;;10.60;;
74793;SDS011;63320;50.768;6.724;2023-12-14T13:52:47;19.57;;;9.93;;
74793;SDS011;63320;50.768;6.724;2023-12-14T13:55:12;20.40;;;9.30;;
74793;SDS011;63320;50.768;6.724;2023-12-14T13:57:39;21.37;;;9.70;;
74793;SDS011;63320;50.768;6.724;2023-12-14T14:00:04;18.80;;;9.80;;
74793;SDS011;63320;50.768;6.724;2023-12-14T14:02:30;18.95;;;8.95;;
74793;SDS011;63320;50.768;6.724;2023-12-14T14:04:55;24.03;;;10.07;;
74793;SDS011;63320;50.768;6.724;2023-12-14T14:07:20;19.43;;;9.73;;
74793;SDS011;63320;50.768;6.724;2023-12-14T14:09:46;17.55;;;8.98;;
74793;SDS011;63320;50.768;6.724;2023-12-14T14:12:11;18.20;;;8.83;;
74793;SDS011;63320;50.768;6.724;2023-12-14T14:14:37;16.83;;;8.97;;
74793;SDS011;63320;50.768;6.724;2023-12-14T14:17:02;19.00;;;9.48;;
74793;SDS011;63320;50.768;6.724;2023-12-14T14:19:28;20.40;;;9.73;;
74793;SDS011;63320;50.768;6.724;2023-12-14T14:21:53;19.20;;;9.43;;
74793;SDS011;63320;50.768;6.724;2023-12-14T14:24:18;19.37;;;9.93;;
74793;SDS011;63320;50.768;6.724;2023-12-14T14:26:43;19.03;;;9.67;;